Time;durP1;ratioP1;P1;durP2;ratioP2;P2;SDS_P1;SDS_P2;PMS_P1;PMS_P2;Temp;Humidity;BMP_temperature;BMP_pressure;BME280_temperature;BME280_humidity;BME280_pressure;Samples;Min_cycle;Max_cycle;Signal;HPM_P1;HPM_P2
2023/12/12 00:00:38;;;;;;;6.82;1.80;;;6.30;99.90;;;;;;5027075;28;20430;-87
2023/12/12 00:03:04;;;;;;;4.75;1.85;;;6.30;99.90;;;;;;5021574;28;20045;-88
2023/12/12 00:05:30;;;;;;;3.88;1.50;;;6.30;99.90;;;;;;5026691;28;20053;-86
2023/12/12 00:07:56;;;;;;;6.95;1.67;;;6.20;99.90;;;;;;5022861;28;20509;-87
2023/12/12 00:10:22;;;;;;;3.90;1.20;;;6.20;99.90;;;;;;5023319;28;20078;-85
2023/12/12 00:12:49;;;;;;;7.03;1.85;;;6.10;99.90;;;;;;5015429;28;20049;-86
2023/12/12 00:15:16;;;;;;;5.15;1.70;;;6.00;99.90;;;;;;5024858;28;20048;-96
2023/12/12 00:17:42;;;;;;;3.75;1.27;;;6.00;99.90;;;;;;5014121;28;20552;-86
2023/12/12 00:20:09;;;;;;;1.63;1.23;;;5.90;99.90;;;;;;5024257;28;20146;-87
2023/12/12 00:22:36;;;;;;;10.25;1.90;;;5.90;99.90;;;;;;5024821;28;20024;-86
2023/12/12 00:25:03;;;;;;;5.50;1.85;;;5.80;99.90;;;;;;5024470;28;20533;-87
2023/12/12 00:27:32;;;;;;;5.20;1.73;;;5.80;99.90;;;;;;5027034;28;20104;-87
2023/12/12 00:29:57;;;;;;;7.70;1.45;;;5.70;99.90;;;;;;5027186;28;20021;-86
2023/12/12 00:32:23;;;;;;;3.35;1.70;;;5.60;99.90;;;;;;5024835;28;20100;-85
2023/12/12 00:34:52;;;;;;;9.02;1.65;;;5.60;99.90;;;;;;5015195;28;20042;-94
2023/12/12 00:37:21;;;;;;;2.85;1.40;;;5.50;99.90;;;;;;5017640;28;20040;-92
2023/12/12 00:39:52;;;;;;;2.88;1.35;;;5.40;99.90;;;;;;5017917;28;20060;-91
2023/12/12 00:42:18;;;;;;;4.43;1.40;;;5.30;99.90;;;;;;5013872;28;20053;-90
2023/12/12 00:44:47;;;;;;;7.97;1.63;;;5.20;99.90;;;;;;4992697;28;20030;-86
2023/12/12 00:47:12;;;;;;;3.45;1.65;;;5.10;99.90;;;;;;4990623;28;20053;-87
2023/12/12 00:49:39;;;;;;;4.57;1.35;;;5.00;99.90;;;;;;5003106;28;20026;-89
2023/12/12 00:52:05;;;;;;;3.67;1.50;;;4.90;99.90;;;;;;5006115;28;20126;-88
2023/12/12 00:54:31;;;;;;;7.65;2.20;;;4.90;99.90;;;;;;5005383;28;20061;-89
2023/12/12 00:56:57;;;;;;;14.10;3.05;;;5.00;99.90;;;;;;5001760;28;20386;-86
2023/12/12 00:59:22;;;;;;;7.88;2.20;;;5.10;99.90;;;;;;4989386;28;20471;-87
2023/12/12 01:01:51;;;;;;;5.10;2.40;;;5.20;99.90;;;;;;4995360;28;20525;-96
2023/12/12 01:04:17;;;;;;;4.85;2.25;;;5.30;99.90;;;;;;4998321;28;20038;-85
2023/12/12 01:06:43;;;;;;;8.90;2.45;;;5.40;99.90;;;;;;5001148;28;20483;-86
2023/12/12 01:09:09;;;;;;;7.60;2.33;;;5.60;99.90;;;;;;5001624;28;20041;-86
2023/12/12 01:11:34;;;;;;;18.27;2.53;;;5.70;99.90;;;;;;4998869;28;20026;-89
2023/12/12 01:14:03;;;;;;;3.53;1.90;;;5.90;99.90;;;;;;4998878;28;20037;-96
2023/12/12 01:16:28;;;;;;;27.13;4.03;;;6.00;99.90;;;;;;5005864;28;20364;-82
2023/12/12 01:18:55;;;;;;;10.82;3.47;;;6.10;99.90;;;;;;4998438;28;20057;-83
2023/12/12 01:21:20;;;;;;;13.10;2.30;;;6.10;99.90;;;;;;5003579;28;20108;-85
2023/12/12 01:23:49;;;;;;;8.70;2.17;;;6.20;99.90;;;;;;5004252;28;20427;-86
2023/12/12 01:26:15;;;;;;;2.60;1.60;;;6.20;99.90;;;;;;5004968;28;20030;-85
2023/12/12 01:28:40;;;;;;;17.30;2.38;;;6.20;99.90;;;;;;4999121;28;20035;-86
2023/12/12 01:31:06;;;;;;;10.82;2.28;;;6.20;99.90;;;;;;5004718;28;20121;-86
2023/12/12 01:33:31;;;;;;;5.30;2.00;;;6.20;99.90;;;;;;4997781;28;20045;-87
2023/12/12 01:35:57;;;;;;;6.40;1.80;;;6.20;99.90;;;;;;4996842;28;20372;-87
2023/12/12 01:38:23;;;;;;;6.63;1.70;;;6.10;99.90;;;;;;4993419;28;20030;-85
2023/12/12 01:40:49;;;;;;;3.65;1.70;;;6.10;99.90;;;;;;4997437;28;20027;-92
2023/12/12 01:43:28;;;;;;;7.38;2.00;;;6.10;99.90;;;;;;5012742;28;20056;-85
2023/12/12 01:45:56;;;;;;;4.50;1.38;;;6.00;99.90;;;;;;5016052;28;20033;-85
2023/12/12 01:48:26;;;;;;;5.90;1.63;;;6.00;99.90;;;;;;5009919;28;20026;-89
2023/12/12 01:50:53;;;;;;;5.55;2.45;;;5.90;99.90;;;;;;5020684;28;20045;-88
2023/12/12 01:53:27;;;;;;;3.28;1.52;;;5.80;99.90;;;;;;5008245;28;20539;-86
2023/12/12 01:55:54;;;;;;;2.95;1.45;;;5.70;99.90;;;;;;5015335;28;20033;-85
2023/12/12 01:58:23;;;;;;;6.50;1.52;;;5.60;99.90;;;;;;5025726;28;20033;-96
2023/12/12 02:00:53;;;;;;;8.48;1.52;;;5.50;99.90;;;;;;5020565;28;20033;-87
2023/12/12 02:03:20;;;;;;;3.50;1.60;;;5.30;99.90;;;;;;5018545;28;20083;-87
2023/12/12 02:05:49;;;;;;;3.30;1.38;;;5.20;99.90;;;;;;5022706;28;20026;-86
2023/12/12 02:08:16;;;;;;;1.92;1.40;;;5.00;99.90;;;;;;5018105;28;20140;-88
2023/12/12 02:10:42;;;;;;;6.40;1.90;;;4.90;99.90;;;;;;5029719;28;20037;-85
2023/12/12 02:13:10;;;;;;;5.45;1.73;;;4.90;99.90;;;;;;5022521;28;20424;-85
2023/12/12 02:15:35;;;;;;;5.28;1.50;;;4.80;99.90;;;;;;5017502;28;20055;-87
2023/12/12 02:18:01;;;;;;;3.65;1.40;;;4.70;99.90;;;;;;5014610;28;20029;-87
2023/12/12 02:20:27;;;;;;;3.13;1.55;;;4.50;99.90;;;;;;5025746;28;20037;-86
2023/12/12 02:22:53;;;;;;;4.80;1.42;;;4.40;99.90;;;;;;5021212;28;20026;-85
2023/12/12 02:25:19;;;;;;;5.20;1.30;;;4.40;99.90;;;;;;5025187;28;20028;-90
2023/12/12 02:27:51;;;;;;;4.07;1.52;;;4.30;99.90;;;;;;5020096;28;20029;-85
2023/12/12 02:30:20;;;;;;;3.00;1.30;;;4.20;99.90;;;;;;5022501;28;20036;-86
2023/12/12 02:32:49;;;;;;;6.75;1.90;;;4.00;99.90;;;;;;5026270;28;20471;-85
2023/12/12 02:35:15;;;;;;;5.97;1.92;;;3.90;99.90;;;;;;5014384;28;20097;-85
2023/12/12 02:37:40;;;;;;;5.20;1.55;;;3.90;99.90;;;;;;5014700;28;20125;-85
2023/12/12 02:40:08;;;;;;;2.38;1.50;;;3.90;99.90;;;;;;5020268;28;20060;-85
2023/12/12 02:42:34;;;;;;;3.78;1.30;;;3.90;99.90;;;;;;5019844;28;20078;-88
2023/12/12 02:45:00;;;;;;;11.05;1.60;;;3.90;99.90;;;;;;5011736;28;20040;-88
2023/12/12 02:47:26;;;;;;;1.88;1.40;;;3.80;99.90;;;;;;5007629;28;20382;-95
2023/12/12 02:49:52;;;;;;;5.38;2.00;;;3.90;99.90;;;;;;5026582;28;20499;-86
2023/12/12 02:52:20;;;;;;;9.85;1.85;;;3.90;99.90;;;;;;5026847;28;20057;-85
2023/12/12 02:54:49;;;;;;;4.95;1.75;;;4.00;99.90;;;;;;5032587;28;20042;-85
2023/12/12 02:57:15;;;;;;;2.97;1.67;;;3.90;99.90;;;;;;5023277;28;20939;-91
2023/12/12 02:59:44;;;;;;;13.38;2.30;;;4.00;99.90;;;;;;5026036;28;20033;-85
2023/12/12 03:02:10;;;;;;;14.60;2.25;;;4.00;99.90;;;;;;5021838;28;20028;-86
2023/12/12 03:04:35;;;;;;;3.25;1.80;;;4.00;99.90;;;;;;5023380;28;20018;-86
2023/12/12 03:07:01;;;;;;;2.17;1.58;;;4.00;99.90;;;;;;5020928;28;20032;-86
2023/12/12 03:09:27;;;;;;;9.00;1.90;;;4.00;99.90;;;;;;5023006;28;20109;-86
2023/12/12 03:11:55;;;;;;;4.32;1.80;;;4.00;99.90;;;;;;5021061;28;20036;-86
2023/12/12 03:14:27;;;;;;;4.95;1.88;;;4.10;99.90;;;;;;5014691;28;20578;-86
2023/12/12 03:16:53;;;;;;;5.10;1.98;;;4.10;99.90;;;;;;5004689;28;20053;-85
2023/12/12 03:19:18;;;;;;;6.30;2.33;;;4.10;99.90;;;;;;5020297;28;20530;-86
2023/12/12 03:21:44;;;;;;;2.00;1.70;;;4.10;99.90;;;;;;5025967;28;20061;-85
2023/12/12 03:24:10;;;;;;;3.65;1.42;;;4.10;99.90;;;;;;5024603;28;20032;-85
2023/12/12 03:26:35;;;;;;;4.45;2.25;;;4.10;99.90;;;;;;5020298;28;20095;-86
2023/12/12 03:29:01;;;;;;;2.15;1.65;;;4.00;99.90;;;;;;5025650;28;20449;-86
2023/12/12 03:31:26;;;;;;;2.70;1.80;;;4.00;99.90;;;;;;5020660;28;20030;-85
2023/12/12 03:33:52;;;;;;;5.78;1.88;;;3.90;99.90;;;;;;5007529;28;20037;-86
2023/12/12 03:36:18;;;;;;;3.38;1.85;;;3.90;99.90;;;;;;5021779;28;20033;-92
2023/12/12 03:38:43;;;;;;;7.28;2.30;;;3.90;99.90;;;;;;5025648;28;20116;-88
2023/12/12 03:41:12;;;;;;;7.30;2.00;;;3.90;99.90;;;;;;5001205;28;20029;-87
2023/12/12 03:43:38;;;;;;;2.85;2.00;;;3.80;99.90;;;;;;5004468;28;20503;-85
2023/12/12 03:46:03;;;;;;;6.57;1.80;;;3.80;99.90;;;;;;5011894;28;20033;-86
2023/12/12 03:48:29;;;;;;;8.27;2.65;;;3.70;99.90;;;;;;5019371;28;20029;-86
2023/12/12 03:50:54;;;;;;;13.75;3.03;;;3.70;99.90;;;;;;5007092;28;20033;-85
2023/12/12 03:53:23;;;;;;;5.85;2.72;;;3.60;99.90;;;;;;4996474;28;20042;-95
2023/12/12 03:55:49;;;;;;;4.68;2.38;;;3.60;99.90;;;;;;4991420;28;20490;-96
2023/12/12 03:58:16;;;;;;;8.75;2.80;;;3.50;99.90;;;;;;5007411;28;20084;-96
2023/12/12 04:00:50;;;;;;;6.60;2.72;;;3.50;99.90;;;;;;5008067;28;20033;-86
2023/12/12 04:03:19;;;;;;;16.77;3.90;;;3.40;99.90;;;;;;5011781;28;20025;-85
2023/12/12 04:05:47;;;;;;;16.10;2.97;;;3.40;99.90;;;;;;5008026;28;20352;-86
2023/12/12 04:08:13;;;;;;;9.40;4.22;;;3.40;99.90;;;;;;5016169;28;20518;-85
2023/12/12 04:10:40;;;;;;;3.88;2.83;;;3.40;99.90;;;;;;5007589;28;20030;-85
2023/12/12 04:13:06;;;;;;;10.23;2.30;;;3.40;99.90;;;;;;5006021;28;20065;-86
2023/12/12 04:15:40;;;;;;;9.18;2.90;;;3.40;99.90;;;;;;5014767;28;20415;-86
2023/12/12 04:18:06;;;;;;;4.65;2.55;;;3.40;99.90;;;;;;5025614;28;20018;-85
2023/12/12 04:20:32;;;;;;;12.13;2.97;;;3.50;99.90;;;;;;5015131;28;20033;-86
2023/12/12 04:22:58;;;;;;;4.97;2.90;;;3.50;99.90;;;;;;5008569;28;20033;-85
2023/12/12 04:25:24;;;;;;;6.78;2.75;;;3.50;99.90;;;;;;5012494;28;20400;-87
2023/12/12 04:27:50;;;;;;;12.95;3.25;;;3.60;99.90;;;;;;5011757;28;20051;-88
2023/12/12 04:30:16;;;;;;;6.85;2.90;;;3.80;99.90;;;;;;5006322;28;20034;-82
2023/12/12 04:32:42;;;;;;;9.18;2.55;;;4.10;99.90;;;;;;5001793;28;20034;-86
2023/12/12 04:35:09;;;;;;;11.63;2.47;;;4.30;99.90;;;;;;4991367;28;20327;-85
2023/12/12 04:37:34;;;;;;;4.65;2.20;;;4.50;99.90;;;;;;5009223;28;20021;-87
2023/12/12 04:40:01;;;;;;;6.57;2.00;;;4.70;99.90;;;;;;5009438;28;20033;-93
2023/12/12 04:42:26;;;;;;;3.25;1.67;;;4.90;99.90;;;;;;5013784;28;20510;-85
2023/12/12 04:44:52;;;;;;;5.50;2.15;;;5.10;99.90;;;;;;5013064;28;20053;-86
2023/12/12 04:47:19;;;;;;;16.92;3.97;;;5.30;99.90;;;;;;5011814;28;20128;-89
2023/12/12 04:49:44;;;;;;;4.68;2.20;;;5.40;99.90;;;;;;5011865;28;20116;-86
2023/12/12 04:52:10;;;;;;;1.77;1.27;;;5.50;99.90;;;;;;5013735;28;20022;-85
2023/12/12 04:54:36;;;;;;;6.32;1.65;;;5.60;99.90;;;;;;5018060;28;20068;-83
2023/12/12 04:57:02;;;;;;;3.70;1.33;;;5.70;99.90;;;;;;5018617;28;20034;-85
2023/12/12 04:59:28;;;;;;;10.05;2.10;;;5.80;99.90;;;;;;5021882;28;20442;-86
2023/12/12 05:01:54;;;;;;;6.13;1.80;;;5.90;99.90;;;;;;5021948;28;20021;-84
2023/12/12 05:04:22;;;;;;;2.00;1.50;;;6.00;99.90;;;;;;5023686;28;20025;-94
2023/12/12 05:06:48;;;;;;;12.55;2.33;;;6.10;99.90;;;;;;5025934;28;20398;-87
2023/12/12 05:09:15;;;;;;;6.47;1.60;;;6.10;99.90;;;;;;5020826;28;20045;-86
2023/12/12 05:11:40;;;;;;;5.72;1.48;;;6.20;99.90;;;;;;5024097;28;20061;-84
2023/12/12 05:14:07;;;;;;;3.78;1.80;;;6.20;99.90;;;;;;5023237;28;20034;-87
2023/12/12 05:16:32;;;;;;;4.70;1.92;;;6.20;99.90;;;;;;5026272;28;20032;-85
2023/12/12 05:18:58;;;;;;;5.80;1.95;;;6.30;99.90;;;;;;5021991;28;20030;-84
2023/12/12 05:21:25;;;;;;;9.32;2.15;;;6.20;99.90;;;;;;5018927;28;20346;-84
2023/12/12 05:23:51;;;;;;;2.50;1.27;;;6.30;99.90;;;;;;5021324;28;20534;-85
2023/12/12 05:26:20;;;;;;;3.90;1.70;;;6.30;99.90;;;;;;5021845;28;20033;-85
2023/12/12 05:28:46;;;;;;;4.57;1.75;;;6.40;99.90;;;;;;5024173;28;20034;-83
2023/12/12 05:31:11;;;;;;;8.32;1.90;;;6.30;99.90;;;;;;5019515;28;20455;-84
2023/12/12 05:33:37;;;;;;;4.47;1.70;;;6.30;99.90;;;;;;5020802;28;20048;-83
2023/12/12 05:36:03;;;;;;;3.22;1.40;;;6.30;99.90;;;;;;5021033;28;20144;-86
2023/12/12 05:38:29;;;;;;;6.43;2.70;;;6.30;99.90;;;;;;5006148;28;20446;-85
2023/12/12 05:40:56;;;;;;;5.03;2.03;;;6.30;99.90;;;;;;5022739;28;20042;-85
2023/12/12 05:43:21;;;;;;;3.58;1.67;;;6.30;99.90;;;;;;5021205;28;20064;-88
2023/12/12 05:45:47;;;;;;;2.40;1.50;;;6.40;99.90;;;;;;5026219;28;20060;-85
2023/12/12 05:48:14;;;;;;;5.07;1.88;;;6.40;99.90;;;;;;5024356;28;20056;-86
2023/12/12 05:50:39;;;;;;;5.68;1.67;;;6.40;99.90;;;;;;5023189;28;20479;-86
2023/12/12 05:53:05;;;;;;;4.32;1.67;;;6.50;99.90;;;;;;5019937;28;20037;-88
2023/12/12 05:55:31;;;;;;;5.60;2.03;;;6.50;99.90;;;;;;5023043;28;20060;-84
2023/12/12 05:57:56;;;;;;;4.30;1.58;;;6.60;99.90;;;;;;5023852;28;20030;-89
2023/12/12 06:00:22;;;;;;;2.58;1.38;;;6.60;99.90;;;;;;5016862;28;20029;-86
2023/12/12 06:02:48;;;;;;;5.03;1.30;;;6.60;99.90;;;;;;5024643;28;20031;-84
2023/12/12 06:05:13;;;;;;;3.97;1.52;;;6.60;99.90;;;;;;5024247;28;20030;-82
2023/12/12 06:07:41;;;;;;;5.18;1.60;;;6.60;99.90;;;;;;5020622;28;20036;-84
2023/12/12 06:10:08;;;;;;;3.03;1.20;;;6.60;99.90;;;;;;5016815;28;20083;-86
2023/12/12 06:12:34;;;;;;;3.30;1.33;;;6.60;99.90;;;;;;5018747;28;20574;-82
2023/12/12 06:15:00;;;;;;;2.20;1.27;;;6.60;99.90;;;;;;5019653;28;20049;-85
2023/12/12 06:17:26;;;;;;;6.10;1.55;;;6.60;99.90;;;;;;5027443;28;20386;-83
2023/12/12 06:19:52;;;;;;;1.48;1.10;;;6.60;99.90;;;;;;5026684;28;20035;-85
2023/12/12 06:22:17;;;;;;;3.50;1.60;;;6.60;99.90;;;;;;5023374;28;20028;-83
2023/12/12 06:24:43;;;;;;;2.80;1.35;;;6.60;99.90;;;;;;5022116;28;20053;-81
2023/12/12 06:27:10;;;;;;;1.42;0.98;;;6.70;99.90;;;;;;5016808;28;20033;-84
2023/12/12 06:29:36;;;;;;;5.85;1.27;;;6.60;99.90;;;;;;5023390;28;20038;-88
2023/12/12 06:32:01;;;;;;;1.05;1.00;;;6.70;99.90;;;;;;5021481;28;20065;-82
2023/12/12 06:34:27;;;;;;;2.03;1.17;;;6.70;99.90;;;;;;5016045;28;20045;-82
2023/12/12 06:36:53;;;;;;;4.90;1.70;;;6.70;99.90;;;;;;5018589;28;20080;-83
2023/12/12 06:39:19;;;;;;;1.98;1.00;;;6.80;99.90;;;;;;5020016;28;20030;-87
2023/12/12 06:41:44;;;;;;;2.70;1.20;;;6.80;99.90;;;;;;5023805;28;20418;-82
2023/12/12 06:44:10;;;;;;;3.35;1.05;;;6.70;99.90;;;;;;5025329;28;20029;-82
2023/12/12 06:46:36;;;;;;;3.65;1.00;;;6.80;99.90;;;;;;5026069;28;20017;-82
2023/12/12 06:49:06;;;;;;;2.25;1.20;;;6.70;99.90;;;;;;5026691;28;20021;-85
2023/12/12 06:51:32;;;;;;;1.10;1.08;;;6.70;99.90;;;;;;5025764;28;20053;-82
2023/12/12 06:53:58;;;;;;;2.42;1.52;;;6.80;99.90;;;;;;5023490;28;20333;-84
2023/12/12 06:56:26;;;;;;;1.95;1.10;;;6.70;99.90;;;;;;5021651;28;20029;-83
2023/12/12 06:58:52;;;;;;;1.30;1.10;;;6.80;99.90;;;;;;5025535;28;20084;-82
2023/12/12 07:01:17;;;;;;;1.92;1.15;;;6.70;99.90;;;;;;5022569;28;20463;-85
2023/12/12 07:03:43;;;;;;;2.15;1.10;;;6.70;99.90;;;;;;5027004;28;20025;-83
2023/12/12 07:06:09;;;;;;;1.92;1.60;;;6.80;99.90;;;;;;5023094;28;20009;-82
2023/12/12 07:08:34;;;;;;;3.78;1.35;;;6.80;99.90;;;;;;5021627;28;20025;-86
2023/12/12 07:11:03;;;;;;;1.17;1.08;;;6.80;99.90;;;;;;5020704;28;20052;-92
2023/12/12 07:13:31;;;;;;;3.90;1.10;;;6.80;99.90;;;;;;5014010;28;20037;-83
2023/12/12 07:15:56;;;;;;;1.25;1.13;;;6.80;99.90;;;;;;5022475;28;20033;-84
2023/12/12 07:18:23;;;;;;;1.70;1.13;;;6.70;99.90;;;;;;5019121;28;20525;-81
2023/12/12 07:20:49;;;;;;;1.15;0.95;;;6.70;99.90;;;;;;5021197;28;20032;-86
2023/12/12 07:23:15;;;;;;;1.40;1.20;;;6.70;99.90;;;;;;5025171;28;20029;-84
2023/12/12 07:25:40;;;;;;;0.90;0.90;;;6.60;99.90;;;;;;5021407;28;20140;-86
2023/12/12 07:28:06;;;;;;;2.30;1.15;;;6.60;99.90;;;;;;5021311;28;20040;-84
2023/12/12 07:30:32;;;;;;;2.05;1.10;;;6.60;99.90;;;;;;5023286;28;20534;-85
2023/12/12 07:32:58;;;;;;;3.80;1.10;;;6.60;99.90;;;;;;5007596;28;20489;-83
2023/12/12 07:35:24;;;;;;;1.35;1.25;;;6.60;99.90;;;;;;5022268;28;20281;-85
2023/12/12 07:37:50;;;;;;;5.40;2.55;;;6.60;99.90;;;;;;5022631;28;20544;-90
2023/12/12 07:40:16;;;;;;;1.58;1.00;;;6.50;99.90;;;;;;5020146;28;20017;-86
2023/12/12 07:42:42;;;;;;;1.50;1.20;;;6.50;99.90;;;;;;4998832;28;20049;-83
2023/12/12 07:45:09;;;;;;;1.88;1.33;;;6.60;99.90;;;;;;5022777;28;20034;-85
2023/12/12 07:47:35;;;;;;;1.42;1.00;;;6.60;99.90;;;;;;5022222;28;20025;-93
2023/12/12 07:50:05;;;;;;;3.05;1.20;;;6.60;99.90;;;;;;5021251;28;20036;-84
2023/12/12 07:52:31;;;;;;;1.25;1.13;;;6.60;99.90;;;;;;5019748;28;20466;-83
2023/12/12 07:54:57;;;;;;;3.45;1.13;;;6.60;99.90;;;;;;5020603;28;20072;-85
2023/12/12 07:57:22;;;;;;;2.42;1.30;;;6.60;99.90;;;;;;5026353;28;20060;-84
2023/12/12 07:59:50;;;;;;;2.17;1.15;;;6.60;99.90;;;;;;5024252;28;20507;-92
2023/12/12 08:02:16;;;;;;;1.10;1.10;;;6.60;99.90;;;;;;5023294;28;23116;-82
2023/12/12 08:04:42;;;;;;;1.40;1.25;;;6.50;99.90;;;;;;5020522;28;20071;-85
2023/12/12 08:07:07;;;;;;;4.35;1.38;;;6.50;99.90;;;;;;5016820;28;20557;-82
2023/12/12 08:09:33;;;;;;;5.15;1.85;;;6.60;99.90;;;;;;5024291;28;20037;-87
2023/12/12 08:11:58;;;;;;;2.03;1.40;;;6.60;99.90;;;;;;5008150;28;20021;-84
2023/12/12 08:14:24;;;;;;;1.75;1.65;;;6.60;99.90;;;;;;5024793;28;20033;-83
2023/12/12 08:16:50;;;;;;;7.68;3.22;;;6.70;99.90;;;;;;5022076;28;20033;-89
2023/12/12 08:19:15;;;;;;;3.80;2.78;;;6.70;99.90;;;;;;5024323;28;20093;-82
2023/12/12 08:21:41;;;;;;;4.18;1.85;;;6.70;99.90;;;;;;5023953;28;20057;-83
2023/12/12 08:24:07;;;;;;;4.50;2.33;;;6.80;99.90;;;;;;5022828;28;20033;-83
2023/12/12 08:26:51;;;;;;;8.55;1.75;;;6.70;99.90;;;;;;5019083;28;20061;-88
2023/12/12 08:29:16;;;;;;;9.93;4.57;;;6.80;99.90;;;;;;5018018;28;20036;-82
2023/12/12 08:31:42;;;;;;;5.72;3.13;;;6.80;99.90;;;;;;5022233;28;20399;-83
2023/12/12 08:34:08;;;;;;;4.40;2.95;;;6.80;99.90;;;;;;5025498;28;20390;-83
2023/12/12 08:36:34;;;;;;;6.65;2.65;;;6.90;99.90;;;;;;5021806;28;20024;-88
2023/12/12 08:39:00;;;;;;;12.70;6.38;;;6.90;99.90;;;;;;5021669;28;20030;-82
2023/12/12 08:41:28;;;;;;;8.82;3.47;;;6.90;99.90;;;;;;5021995;28;20125;-85
2023/12/12 08:43:54;;;;;;;8.27;2.22;;;6.90;99.90;;;;;;5016471;28;20026;-85
2023/12/12 08:46:22;;;;;;;7.28;2.17;;;7.00;99.90;;;;;;5017962;28;20021;-91
2023/12/12 08:48:48;;;;;;;12.00;3.53;;;7.10;99.90;;;;;;5022399;28;20037;-85
2023/12/12 08:51:14;;;;;;;7.18;2.10;;;7.20;99.90;;;;;;5026054;28;20526;-84
2023/12/12 08:53:40;;;;;;;4.20;2.38;;;7.20;99.90;;;;;;5026518;28;20558;-83
2023/12/12 08:56:16;;;;;;;6.10;3.20;;;7.20;99.90;;;;;;5022147;28;20017;-90
2023/12/12 08:58:43;;;;;;;;;;;7.40;99.90;;;;;;5025828;28;20398;-91
2023/12/12 09:01:09;;;;;;;12.80;3.05;;;7.40;99.90;;;;;;5028149;28;19909;-86
2023/12/12 09:03:34;;;;;;;10.02;3.65;;;7.50;99.90;;;;;;5016140;28;20028;-86
2023/12/12 09:06:01;;;;;;;8.05;2.95;;;7.60;99.90;;;;;;5016954;28;20116;-82
2023/12/12 09:08:26;;;;;;;9.43;2.47;;;7.70;99.90;;;;;;5023441;28;20463;-84
2023/12/12 09:10:52;;;;;;;9.02;2.70;;;7.70;99.90;;;;;;5019441;28;20032;-89
2023/12/12 09:13:18;;;;;;;5.85;2.30;;;7.70;99.90;;;;;;5011498;28;20042;-81
2023/12/12 09:15:43;;;;;;;7.32;2.28;;;7.70;99.90;;;;;;5020653;28;20540;-82
2023/12/12 09:18:09;;;;;;;6.93;2.20;;;7.80;99.90;;;;;;5020448;28;20065;-85
2023/12/12 09:20:35;;;;;;;8.13;2.58;;;7.80;99.90;;;;;;5018220;28;20343;-87
2023/12/12 09:23:01;;;;;;;7.75;2.25;;;7.80;99.90;;;;;;5025453;28;20080;-82
2023/12/12 09:25:26;;;;;;;6.90;1.88;;;7.90;99.90;;;;;;5025675;28;20024;-84
2023/12/12 09:27:52;;;;;;;7.88;2.40;;;7.80;99.90;;;;;;5024749;28;20101;-83
2023/12/12 09:30:18;;;;;;;12.13;2.53;;;7.90;99.90;;;;;;5026073;28;20029;-87
2023/12/12 09:32:43;;;;;;;8.57;2.40;;;7.90;99.90;;;;;;5020691;28;20542;-82
2023/12/12 09:35:10;;;;;;;10.68;2.90;;;7.90;99.90;;;;;;5023335;28;20037;-82
2023/12/12 09:37:36;;;;;;;16.77;4.20;;;7.90;99.90;;;;;;5009924;28;20433;-88
2023/12/12 09:40:05;;;;;;;14.43;4.03;;;8.00;99.90;;;;;;5022295;28;20033;-82
2023/12/12 09:42:34;;;;;;;14.65;4.57;;;7.90;99.90;;;;;;5023035;28;20052;-86
2023/12/12 09:45:02;;;;;;;15.45;3.38;;;8.00;99.90;;;;;;5019293;28;20029;-82
2023/12/12 09:47:30;;;;;;;14.35;3.67;;;8.00;99.90;;;;;;5019739;28;20029;-83
2023/12/12 09:49:57;;;;;;;12.45;4.10;;;8.00;99.90;;;;;;5022619;28;20026;-83
2023/12/12 09:52:25;;;;;;;12.00;3.13;;;8.00;99.90;;;;;;5021962;28;20025;-93
2023/12/12 09:54:52;;;;;;;10.73;3.08;;;8.00;99.90;;;;;;5020069;28;20743;-93
2023/12/12 09:57:19;;;;;;;9.18;3.00;;;8.00;99.90;;;;;;4993408;28;20037;-84
2023/12/12 09:59:44;;;;;;;6.18;2.92;;;7.90;99.90;;;;;;5023170;28;20033;-84
2023/12/12 10:02:16;;;;;;;13.45;2.50;;;8.00;99.90;;;;;;5022369;28;20819;-83
2023/12/12 10:04:43;;;;;;;12.40;3.03;;;8.00;99.90;;;;;;5009354;28;20506;-83
2023/12/12 10:07:12;;;;;;;15.57;3.83;;;8.00;99.90;;;;;;5021263;28;20017;-84
2023/12/12 10:09:37;;;;;;;10.68;3.08;;;8.10;99.90;;;;;;5020061;28;20171;-85
2023/12/12 10:12:03;;;;;;;25.42;3.15;;;8.10;99.90;;;;;;5018475;28;20163;-86
2023/12/12 10:14:39;;;;;;;13.70;2.72;;;8.10;99.90;;;;;;5023731;28;20430;-88
2023/12/12 10:17:10;;;;;;;10.25;3.15;;;8.10;99.90;;;;;;5025508;28;20037;-91
2023/12/12 10:19:38;;;;;;;15.45;3.13;;;8.10;99.90;;;;;;5025348;28;20040;-85
2023/12/12 10:22:10;;;;;;;11.57;2.47;;;8.10;99.90;;;;;;5021111;28;20168;-88
2023/12/12 10:24:37;;;;;;;6.10;2.30;;;8.10;99.90;;;;;;5026529;28;20374;-91
2023/12/12 10:27:20;;;;;;;16.02;2.65;;;8.10;99.90;;;;;;5027785;28;20498;-83
2023/12/12 10:29:45;;;;;;;15.23;2.72;;;8.10;99.90;;;;;;5023418;28;20488;-82
2023/12/12 10:32:13;;;;;;;12.13;2.95;;;8.10;99.90;;;;;;5023734;28;20141;-83
2023/12/12 10:34:43;;;;;;;16.08;3.05;;;8.10;99.90;;;;;;5021706;28;20111;-83
2023/12/12 10:37:09;;;;;;;12.32;2.47;;;8.10;99.90;;;;;;5000819;28;20026;-84
2023/12/12 10:39:35;;;;;;;15.35;3.22;;;8.10;99.90;;;;;;5015484;28;20282;-86
2023/12/12 10:42:01;;;;;;;17.45;3.55;;;8.00;99.90;;;;;;5022824;28;20153;-83
2023/12/12 10:44:34;;;;;;;12.82;2.83;;;8.20;99.90;;;;;;5029272;28;20148;-82
2023/12/12 10:47:06;;;;;;;5.70;2.95;;;8.20;99.90;;;;;;5027909;28;20049;-83
2023/12/12 10:49:32;;;;;;;11.20;2.50;;;8.20;99.90;;;;;;5020318;28;20029;-87
2023/12/12 10:52:01;;;;;;;16.73;2.60;;;8.20;99.90;;;;;;5023354;28;20124;-85
2023/12/12 10:54:28;;;;;;;10.88;2.67;;;8.30;99.90;;;;;;5002489;28;20133;-83
2023/12/12 10:56:58;;;;;;;7.53;2.55;;;8.30;99.90;;;;;;5004361;28;20017;-89
2023/12/12 10:59:26;;;;;;;10.15;2.17;;;8.30;99.90;;;;;;5015810;28;20037;-83
2023/12/12 11:01:52;;;;;;;14.95;2.47;;;8.20;99.90;;;;;;5018004;28;20030;-85
2023/12/12 11:04:18;;;;;;;12.32;2.53;;;8.20;99.90;;;;;;5020431;28;20014;-87
2023/12/12 11:06:45;;;;;;;12.80;3.47;;;8.30;99.90;;;;;;5022888;28;20041;-83
2023/12/12 11:09:13;;;;;;;11.32;2.00;;;8.30;99.90;;;;;;4999667;28;20033;-86
2023/12/12 11:11:43;;;;;;;11.20;2.20;;;8.40;99.90;;;;;;5023551;28;20800;-82
2023/12/12 11:14:09;;;;;;;11.18;1.80;;;8.40;99.90;;;;;;5025420;28;20037;-85
2023/12/12 11:16:38;;;;;;;10.80;2.22;;;8.50;99.90;;;;;;5024777;28;20105;-94
2023/12/12 11:19:14;;;;;;;8.65;1.92;;;8.50;99.90;;;;;;5019365;28;20080;-87
2023/12/12 11:21:47;;;;;;;9.20;1.83;;;8.50;99.90;;;;;;5015132;28;20113;-87
2023/12/12 11:24:14;;;;;;;8.27;1.70;;;8.60;99.90;;;;;;5014830;28;20029;-82
2023/12/12 11:26:44;;;;;;;7.22;1.63;;;8.60;99.90;;;;;;5025999;28;20029;-86
2023/12/12 11:29:12;;;;;;;12.13;1.77;;;8.60;99.90;;;;;;5018714;28;20044;-84
2023/12/12 11:32:00;;;;;;;5.00;2.40;;;8.70;99.90;;;;;;5015533;28;20041;-84
2023/12/12 11:34:34;;;;;;;9.70;3.08;;;8.70;99.90;;;;;;5024230;28;20041;-89
2023/12/12 11:37:00;;;;;;;12.25;2.13;;;8.70;99.90;;;;;;5022011;28;20022;-86
2023/12/12 11:39:34;;;;;;;5.43;1.60;;;8.70;99.90;;;;;;5025249;28;20036;-90
2023/12/12 11:42:03;;;;;;;9.10;1.92;;;8.70;99.90;;;;;;5021221;28;20049;-83
2023/12/12 11:44:52;;;;;;;13.00;2.78;;;8.70;99.90;;;;;;5003994;28;20030;-83
2023/12/12 11:47:24;;;;;;;13.48;2.40;;;8.70;99.90;;;;;;5023694;28;20390;-88
2023/12/12 11:49:51;;;;;;;8.02;1.70;;;8.70;99.90;;;;;;5025400;28;20117;-90
2023/12/12 11:52:50;;;;;;;6.93;1.80;;;8.70;99.90;;;;;;5027231;28;20128;-93
2023/12/12 11:55:32;;;;;;;11.82;2.15;;;8.70;99.90;;;;;;4992168;28;20041;-84
2023/12/12 11:58:07;;;;;;;8.13;2.08;;;8.70;99.90;;;;;;5022504;28;20163;-83
2023/12/12 12:00:40;;;;;;;8.15;2.25;;;8.70;99.90;;;;;;5026088;28;20025;-85
2023/12/12 12:03:15;;;;;;;11.15;3.72;;;8.70;99.90;;;;;;5024621;28;20437;-85
2023/12/12 12:05:41;;;;;;;13.10;4.05;;;8.70;99.90;;;;;;5023913;28;20090;-85
2023/12/12 12:08:09;;;;;;;10.48;2.53;;;8.60;99.90;;;;;;5015726;28;20116;-83
2023/12/12 12:10:38;;;;;;;11.65;2.30;;;8.70;99.90;;;;;;5014530;28;20030;-93
2023/12/12 12:13:03;;;;;;;10.95;2.47;;;8.70;99.90;;;;;;5024982;28;20029;-87
2023/12/12 12:15:29;;;;;;;16.10;2.90;;;8.70;99.90;;;;;;5024087;28;20025;-85
2023/12/12 12:17:59;;;;;;;6.68;1.88;;;8.70;99.90;;;;;;5025656;28;20037;-84
2023/12/12 12:20:26;;;;;;;12.82;2.25;;;8.70;99.90;;;;;;5022204;28;20184;-84
2023/12/12 12:22:51;;;;;;;14.65;2.88;;;8.80;99.90;;;;;;5017088;28;20467;-84
2023/12/12 12:25:22;;;;;;;6.93;2.03;;;8.70;99.90;;;;;;5019148;28;20099;-83
2023/12/12 12:27:50;;;;;;;10.77;2.55;;;8.70;99.90;;;;;;5022107;28;20033;-90
2023/12/12 12:30:17;;;;;;;13.48;3.00;;;8.70;99.90;;;;;;5024232;28;20040;-87
2023/12/12 12:33:06;;;;;;;13.27;2.67;;;8.70;99.90;;;;;;5006194;28;20467;-83
2023/12/12 12:35:31;;;;;;;13.40;3.92;;;8.70;99.90;;;;;;5016285;28;20419;-83
2023/12/12 12:37:57;;;;;;;12.25;2.72;;;8.70;99.90;;;;;;5013709;28;20025;-84
2023/12/12 12:40:37;;;;;;;11.65;3.45;;;8.70;99.90;;;;;;5018957;28;20104;-83
2023/12/12 12:43:12;;;;;;;15.63;4.05;;;8.80;99.90;;;;;;5000898;28;20057;-87
2023/12/12 12:46:31;;;;;;;24.15;3.10;;;8.80;99.90;;;;;;4994811;28;20072;-83
2023/12/12 12:48:56;;;;;;;20.48;3.55;;;8.80;99.90;;;;;;4989588;28;20501;-86
2023/12/12 12:51:22;;;;;;;6.10;2.50;;;8.80;99.90;;;;;;5001502;28;20114;-84
2023/12/12 12:53:48;;;;;;;7.65;3.17;;;8.80;99.90;;;;;;5001009;28;20061;-89
2023/12/12 12:56:14;;;;;;;19.38;3.03;;;8.70;99.90;;;;;;4985864;28;20025;-83